Time;durP1;ratioP1;P1;durP2;ratioP2;P2;SDS_P1;SDS_P2;PMS_P1;PMS_P2;Temp;Humidity;BMP_temperature;BMP_pressure;BME280_temperature;BME280_humidity;BME280_pressure;Samples;Min_cycle;Max_cycle;Signal;HPM_P1;HPM_P2
2021/12/24 00:01:43;;;;;;;50.22;17.92;;;;;;;7.27;100.00;100566.19;5082905;28;20111;-78
2021/12/24 00:04:09;;;;;;;47.45;18.33;;;;;;;7.28;100.00;100550.50;5092976;28;20040;-78
2021/12/24 00:06:36;;;;;;;47.15;18.10;;;;;;;7.33;100.00;100557.31;5082157;28;20032;-78
2021/12/24 00:09:03;;;;;;;46.85;18.48;;;;;;;7.37;100.00;100558.91;5053358;28;20339;-78
2021/12/24 00:11:29;;;;;;;41.78;17.83;;;;;;;7.43;100.00;100556.97;5039854;28;20059;-78
2021/12/24 00:13:54;;;;;;;44.67;18.67;;;;;;;7.47;100.00;100553.38;5080451;28;20024;-78
2021/12/24 00:16:35;;;;;;;43.05;17.83;;;;;;;7.53;100.00;100554.94;5066854;28;20040;-78
2021/12/24 00:19:14;;;;;;;40.83;17.85;;;;;;;7.57;100.00;100548.72;5083432;28;20028;-79
2021/12/24 00:35:39;;;;;;;55.47;20.98;;;;;;;7.85;100.00;100547.78;5080636;28;20412;-78
2021/12/24 00:38:06;;;;;;;46.58;19.90;;;;;;;7.89;100.00;100544.16;5068124;28;20032;-78
2021/12/24 00:40:40;;;;;;;55.28;21.63;;;;;;;7.93;100.00;100551.00;5063508;28;20059;-78
2021/12/24 00:43:05;;;;;;;47.13;21.48;;;;;;;7.94;100.00;100547.47;5083407;28;20036;-78
2021/12/24 00:45:32;;;;;;;57.67;22.08;;;;;;;7.99;100.00;100552.56;5064033;28;20242;-79
2021/12/24 00:47:58;;;;;;;53.33;21.48;;;;;;;7.99;100.00;100545.56;5067198;28;20039;-78
2021/12/24 00:50:26;;;;;;;52.00;20.25;;;;;;;7.99;100.00;100561.22;5082767;28;20077;-78
2021/12/24 00:52:57;;;;;;;51.58;20.40;;;;;;;8.01;100.00;100555.97;5048262;28;20017;-78
2021/12/24 00:55:24;;;;;;;57.80;20.20;;;;;;;8.02;100.00;100568.94;5051327;28;20976;-78
2021/12/24 00:57:51;;;;;;;48.13;19.52;;;;;;;8.02;100.00;100558.50;5049575;28;20028;-78
2021/12/24 01:00:32;;;;;;;52.35;20.45;;;;;;;8.03;100.00;100560.19;5083714;28;20039;-78
2021/12/24 01:02:58;;;;;;;46.70;19.40;;;;;;;8.05;100.00;100552.31;5083719;28;20028;-78
2021/12/24 01:05:24;;;;;;;49.88;19.65;;;;;;;8.05;100.00;100557.53;5082999;28;20052;-78
2021/12/24 01:07:49;;;;;;;55.92;20.30;;;;;;;8.07;100.00;100556.56;5065420;28;20161;-78
2021/12/24 01:10:17;;;;;;;56.50;18.75;;;;;;;8.10;100.00;100562.63;5062947;28;20033;-78
2021/12/24 01:12:42;;;;;;;57.00;20.25;;;;;;;8.09;100.00;100556.53;5063777;28;20051;-78
2021/12/24 01:15:08;;;;;;;55.85;20.85;;;;;;;8.12;100.00;100564.25;5068565;28;20370;-78
2021/12/24 01:18:03;;;;;;;58.13;21.75;;;;;;;8.13;100.00;100565.97;5082887;28;20042;-78
2021/12/24 01:20:28;;;;;;;56.25;19.83;;;;;;;8.17;100.00;100561.50;5075568;28;20063;-78
2021/12/24 01:23:31;;;;;;;51.75;18.63;;;;;;;8.17;100.00;100564.09;5068795;28;20042;-78
2021/12/24 01:25:54;;;;;;;47.75;19.25;;;;;;;8.18;100.00;100564.03;5084019;28;20295;-79
2021/12/24 01:44:36;;;;;;;38.33;15.75;;;;;;;8.19;100.00;100557.06;5065534;28;20074;-78
2021/12/24 01:47:04;;;;;;;41.65;15.57;;;;;;;8.20;100.00;100556.16;5045877;28;20264;-78
2021/12/24 01:49:29;;;;;;;40.70;14.68;;;;;;;8.19;100.00;100555.31;5057506;28;20334;-78
2021/12/24 01:51:55;;;;;;;38.80;15.13;;;;;;;8.19;100.00;100555.31;5082088;28;20039;-78
2021/12/24 01:54:20;;;;;;;36.53;13.63;;;;;;;8.20;100.00;100556.16;5065912;28;20073;-78
2021/12/24 01:56:46;;;;;;;38.55;14.15;;;;;;;8.18;100.00;100553.59;5065546;28;20200;-78
2021/12/24 01:59:11;;;;;;;30.85;14.45;;;;;;;8.20;100.00;100558.75;5073187;28;20067;-78
2021/12/24 02:01:37;;;;;;;27.02;13.88;;;;;;;8.21;100.00;100556.09;5099541;28;20102;-78
2021/12/24 02:04:02;;;;;;;41.03;14.50;;;;;;;8.24;100.00;100560.34;5099901;28;20028;-78
2021/12/24 02:06:28;;;;;;;28.02;14.00;;;;;;;8.24;100.00;100561.22;5064523;28;20051;-78
2021/12/24 02:08:53;;;;;;;38.75;14.00;;;;;;;8.24;100.00;100562.97;5099612;28;20316;-78
2021/12/24 02:11:20;;;;;;;31.17;12.95;;;;;;;8.23;100.00;100567.34;5065113;28;20044;-78
2021/12/24 02:13:45;;;;;;;30.17;12.23;;;;;;;8.23;100.00;100562.13;5065455;28;20101;-78
2021/12/24 02:16:24;;;;;;;33.33;12.35;;;;;;;8.22;100.00;100570.00;5100188;28;20465;-78
2021/12/24 02:29:54;;;;;;;32.58;11.82;;;;;;;8.16;100.00;100565.84;5099290;28;20101;-78
2021/12/24 02:32:19;;;;;;;27.73;11.38;;;;;;;8.16;100.00;100565.00;5081657;28;20111;-78
2021/12/24 02:34:44;;;;;;;29.85;11.70;;;;;;;8.16;100.00;100575.44;5065075;28;20291;-78
2021/12/24 02:37:10;;;;;;;23.40;11.07;;;;;;;8.14;100.00;100566.81;5065408;28;20044;-78
2021/12/24 02:39:35;;;;;;;35.28;11.95;;;;;;;8.12;100.00;100566.88;5099687;28;20032;-78
2021/12/24 02:42:15;;;;;;;28.92;11.38;;;;;;;8.11;100.00;100562.53;5064904;28;20262;-78
2021/12/24 02:44:41;;;;;;;21.88;10.30;;;;;;;8.12;100.00;100563.41;5065404;28;20028;-79
2021/12/24 02:55:03;;;;;;;17.13;9.60;;;;;;;8.08;100.00;100554.84;5070776;28;20048;-78
2021/12/24 02:57:31;;;;;;;17.15;9.05;;;;;;;8.06;100.00;100560.09;5065485;28;20052;-78
2021/12/24 03:00:02;;;;;;;22.75;10.70;;;;;;;8.06;100.00;100556.66;5061183;28;20036;-79
2021/12/24 03:02:28;;;;;;;22.77;10.27;;;;;;;8.06;100.00;100559.25;5082935;28;20039;-78
2021/12/24 03:04:53;;;;;;;22.95;10.07;;;;;;;8.06;100.00;100572.31;5064455;28;20027;-79
2021/12/24 03:07:19;;;;;;;19.23;10.63;;;;;;;8.06;100.00;100561.88;5064518;28;20047;-78
2021/12/24 03:09:44;;;;;;;23.67;9.80;;;;;;;8.08;100.00;100562.66;5064875;28;20039;-78
2021/12/24 03:12:10;;;;;;;26.15;10.35;;;;;;;8.10;100.00;100562.63;5099251;28;20331;-79
2021/12/24 03:14:36;;;;;;;24.67;9.52;;;;;;;8.11;100.00;100565.16;5064797;28;20054;-79
2021/12/24 03:17:06;;;;;;;20.42;9.18;;;;;;;8.12;100.00;100558.19;5058016;28;20032;-79
2021/12/24 03:19:33;;;;;;;21.55;9.68;;;;;;;8.12;100.00;100551.22;5082336;28;20043;-78
2021/12/24 03:22:10;;;;;;;24.70;9.57;;;;;;;8.14;100.00;100569.41;5082239;28;20044;-78
2021/12/24 03:24:35;;;;;;;27.38;9.77;;;;;;;8.15;100.00;100569.38;5084145;28;20058;-78
2021/12/24 03:27:01;;;;;;;23.92;9.32;;;;;;;8.17;100.00;100566.72;5094467;28;20334;-78
2021/12/24 03:29:26;;;;;;;24.45;9.07;;;;;;;8.19;100.00;100557.91;5062050;28;20035;-79
2021/12/24 03:31:52;;;;;;;25.10;9.35;;;;;;;8.20;100.00;100562.22;5052104;28;20084;-78
2021/12/24 03:34:19;;;;;;;23.30;9.18;;;;;;;8.19;100.00;100550.09;5085614;28;20050;-79
2021/12/24 03:36:45;;;;;;;18.08;8.25;;;;;;;8.19;100.00;100552.69;5085366;28;20040;-78
2021/12/24 03:39:10;;;;;;;25.50;8.63;;;;;;;8.19;100.00;100562.28;5068407;28;20065;-79
2021/12/24 03:41:36;;;;;;;21.80;8.57;;;;;;;8.18;100.00;100556.19;5085514;28;20028;-78
2021/12/24 03:44:01;;;;;;;31.13;8.60;;;;;;;8.19;100.00;100570.13;5067415;28;20335;-78
2021/12/24 03:46:39;;;;;;;19.20;8.18;;;;;;;8.19;100.00;100555.31;5065754;28;20024;-78
2021/12/24 03:49:14;;;;;;;26.63;8.00;;;;;;;8.19;100.00;100560.53;5077575;28;20039;-79
2021/12/24 03:53:01;;;;;;;19.88;7.55;;;;;;;8.18;100.00;100556.19;5069998;28;20032;-78
2021/12/24 03:57:18;;;;;;;26.40;7.22;;;;;;;8.19;100.00;100557.06;5085527;28;20043;-78
2021/12/24 03:59:43;;;;;;;15.43;6.55;;;;;;;8.18;100.00;100564.03;5049380;28;20223;-78
2021/12/24 04:02:09;;;;;;;13.70;6.28;;;;;;;8.19;100.00;100554.47;5085086;28;20154;-78
2021/12/24 04:04:34;;;;;;;14.82;6.35;;;;;;;8.17;100.00;100551.91;5048346;28;20035;-78
2021/12/24 04:07:00;;;;;;;17.58;5.50;;;;;;;8.18;100.00;100558.81;5084623;28;20100;-78
2021/12/24 04:09:28;;;;;;;19.42;5.90;;;;;;;8.19;100.00;100560.53;5102772;28;20385;-78
2021/12/24 04:11:53;;;;;;;21.77;6.50;;;;;;;8.19;100.00;100549.25;5068417;28;20038;-78
2021/12/24 04:14:19;;;;;;;23.70;7.22;;;;;;;8.17;100.00;100559.72;5103271;28;20791;-78
2021/12/24 04:16:44;;;;;;;19.55;6.10;;;;;;;8.16;100.00;100557.19;5084216;28;20043;-78
2021/12/24 04:19:37;;;;;;;19.30;5.75;;;;;;;8.15;100.00;100558.06;5102982;28;20039;-78
2021/12/24 04:24:52;;;;;;;20.23;6.03;;;;;;;8.13;100.00;100557.28;5102901;28;20042;-78
2021/12/24 04:27:19;;;;;;;17.50;5.60;;;;;;;8.10;100.00;100557.41;5102755;28;20042;-78
2021/12/24 04:29:44;;;;;;;28.65;6.03;;;;;;;8.10;100.00;100560.84;5084597;28;20085;-79
2021/12/24 04:32:17;;;;;;;21.92;6.05;;;;;;;8.09;99.78;100561.75;5084323;28;20103;-79
2021/12/24 04:34:46;;;;;;;18.80;5.43;;;;;;;8.08;99.87;100573.94;5102110;28;20044;-78
2021/12/24 05:04:31;;;;;;;18.58;4.72;;;;;;;7.92;99.34;100556.28;5060374;28;20040;-79
2021/12/24 05:07:06;;;;;;;11.48;4.43;;;;;;;7.91;99.29;100544.13;5067645;28;20103;-78
2021/12/24 05:09:32;;;;;;;16.35;4.60;;;;;;;7.92;99.24;100556.28;5074778;28;20032;-78
2021/12/24 05:11:57;;;;;;;25.60;5.00;;;;;;;7.90;99.50;100552.88;5083568;28;20329;-78
2021/12/24 05:14:23;;;;;;;16.92;4.63;;;;;;;7.89;99.44;100557.22;5083851;28;20044;-78
2021/12/24 05:16:51;;;;;;;27.50;5.55;;;;;;;7.87;99.21;100557.25;5066689;28;20036;-78
2021/12/24 05:21:49;;;;;;;20.52;4.43;;;;;;;7.86;99.20;100566.00;5084264;28;20099;-78
2021/12/24 05:24:16;;;;;;;23.70;4.80;;;;;;;7.86;99.41;100557.34;5049929;28;20040;-78
2021/12/24 05:26:53;;;;;;;22.10;4.93;;;;;;;7.85;99.26;100558.22;5083372;28;20343;-78
2021/12/24 05:29:19;;;;;;;14.02;4.30;;;;;;;7.84;99.24;100565.22;5068360;28;20345;-79
2021/12/24 05:31:45;;;;;;;14.32;3.45;;;;;;;7.85;99.29;100563.44;5082887;28;20036;-78
2021/12/24 05:34:10;;;;;;;18.00;4.20;;;;;;;7.83;99.29;100560.03;5083494;28;20055;-78
2021/12/24 05:36:36;;;;;;;19.60;4.20;;;;;;;7.83;98.99;100570.47;5102249;28;20096;-78
2021/12/24 05:39:02;;;;;;;17.05;3.80;;;;;;;7.82;99.02;100559.19;5063791;28;20020;-78
2021/12/24 05:41:27;;;;;;;23.50;4.30;;;;;;;7.82;99.15;100564.41;5064569;28;20036;-78
2021/12/24 05:43:53;;;;;;;19.20;3.90;;;;;;;7.80;99.19;100568.78;5067646;28;20034;-78
2021/12/24 05:46:18;;;;;;;19.80;4.35;;;;;;;7.80;98.81;100578.38;5083634;28;20058;-78
2021/12/24 05:48:44;;;;;;;18.65;4.47;;;;;;;7.78;99.09;100570.59;5082282;28;20331;-78
2021/12/24 05:51:10;;;;;;;18.48;3.88;;;;;;;7.78;98.91;100575.81;5080780;28;20066;-78
2021/12/24 05:53:36;;;;;;;28.63;4.25;;;;;;;7.77;98.83;100570.69;5083095;28;20081;-78
2021/12/24 05:56:02;;;;;;;22.00;3.90;;;;;;;7.75;98.69;100568.13;5046035;28;20211;-79
2021/12/24 05:58:27;;;;;;;21.20;4.70;;;;;;;7.74;98.94;100579.44;5065554;28;20034;-78
2021/12/24 06:00:53;;;;;;;21.98;4.03;;;;;;;7.72;98.69;100569.97;5082296;28;20043;-78
2021/12/24 06:03:18;;;;;;;21.95;4.60;;;;;;;7.69;98.74;100569.19;5066026;28;20040;-78
2021/12/24 06:05:43;;;;;;;18.05;4.85;;;;;;;7.67;98.52;100576.16;5082536;28;20019;-78
2021/12/24 06:08:09;;;;;;;12.30;3.53;;;;;;;7.64;98.74;100576.28;5082384;28;20035;-79
2021/12/24 06:10:35;;;;;;;21.95;3.80;;;;;;;7.65;98.58;100564.09;5066802;28;20103;-78
2021/12/24 06:13:00;;;;;;;19.58;3.65;;;;;;;7.64;98.50;100570.22;5082865;28;20243;-78
2021/12/24 06:15:26;;;;;;;15.00;3.97;;;;;;;7.64;98.43;100567.59;5065658;28;20262;-78
2021/12/24 06:17:54;;;;;;;13.95;3.83;;;;;;;7.62;98.64;100564.19;5081404;28;20024;-78
2021/12/24 06:20:20;;;;;;;26.60;5.07;;;;;;;7.61;98.31;100568.56;5081096;28;20043;-78
2021/12/24 06:22:46;;;;;;;17.70;3.72;;;;;;;7.61;98.42;100570.31;5080762;28;20118;-78
2021/12/24 06:25:11;;;;;;;14.70;3.97;;;;;;;7.61;98.30;100578.16;5064062;28;20035;-78
2021/12/24 06:27:37;;;;;;;16.17;3.65;;;;;;;7.59;98.42;100569.53;5098409;28;20078;-78
2021/12/24 06:30:04;;;;;;;27.50;4.68;;;;;;;7.57;98.29;100571.34;5062150;28;20024;-78
2021/12/24 06:32:29;;;;;;;21.55;4.88;;;;;;;7.57;98.45;100580.00;5098257;28;20058;-78
2021/12/24 06:34:55;;;;;;;23.70;4.75;;;;;;;7.56;98.32;100574.84;5046214;28;20075;-78
2021/12/24 06:37:20;;;;;;;30.63;4.35;;;;;;;7.55;98.41;100578.31;5063045;28;20044;-78
2021/12/24 06:39:46;;;;;;;20.05;4.75;;;;;;;7.54;98.35;100564.44;5098293;28;20245;-78
2021/12/24 06:42:11;;;;;;;17.73;4.38;;;;;;;7.51;98.30;100564.53;5080618;28;20339;-78
2021/12/24 06:44:37;;;;;;;17.40;4.30;;;;;;;7.50;98.51;100571.53;5080451;28;20040;-78
2021/12/24 06:47:03;;;;;;;23.13;5.55;;;;;;;7.49;98.34;100564.63;5065170;28;20338;-79
2021/12/24 06:49:29;;;;;;;11.50;3.30;;;;;;;7.48;98.35;100567.28;5100973;28;20036;-79
2021/12/24 06:51:54;;;;;;;11.90;3.78;;;;;;;7.47;98.45;100568.16;5081320;28;20251;-79
2021/12/24 06:54:20;;;;;;;18.52;3.55;;;;;;;7.47;98.30;100565.56;5075876;28;20046;-79
2021/12/24 06:56:45;;;;;;;16.73;3.63;;;;;;;7.46;98.36;100567.31;5078200;28;20036;-79
2021/12/24 06:59:11;;;;;;;21.67;3.53;;;;;;;7.47;98.61;100563.78;5082603;28;20267;-79
2021/12/24 07:01:36;;;;;;;18.73;4.20;;;;;;;7.47;98.42;100566.41;5080577;28;20032;-79
2021/12/24 07:04:02;;;;;;;24.23;3.80;;;;;;;7.47;98.36;100563.78;5064833;28;20036;-79
2021/12/24 07:06:28;;;;;;;19.83;3.85;;;;;;;7.48;98.30;100567.28;5066445;28;20031;-79
2021/12/24 07:08:54;;;;;;;14.40;3.72;;;;;;;7.46;98.41;100554.28;5068965;28;20043;-79
2021/12/24 07:11:19;;;;;;;19.10;3.40;;;;;;;7.45;98.33;100563.00;5084077;28;20073;-77
2021/12/24 07:13:45;;;;;;;17.75;3.72;;;;;;;7.42;98.22;100559.63;5083720;28;20035;-77
2021/12/24 07:16:11;;;;;;;15.55;3.42;;;;;;;7.41;98.47;100545.75;5063980;28;20062;-77
2021/12/24 07:18:38;;;;;;;21.15;3.58;;;;;;;7.37;98.37;100549.38;5065435;28;20305;-79
2021/12/24 07:21:03;;;;;;;19.02;3.28;;;;;;;7.37;98.34;100554.59;5074966;28;20032;-77
2021/12/24 07:23:29;;;;;;;14.05;3.58;;;;;;;7.35;98.32;100559.00;5067026;28;20103;-77
2021/12/24 07:25:54;;;;;;;16.83;3.67;;;;;;;7.33;98.27;100565.13;5067696;28;20372;-77
2021/12/24 07:28:19;;;;;;;11.10;2.78;;;;;;;7.32;98.41;100571.25;5079932;28;20044;-77
2021/12/24 07:30:45;;;;;;;21.13;3.05;;;;;;;7.29;98.47;100573.06;5080908;28;20028;-77
2021/12/24 07:33:14;;;;;;;18.33;3.10;;;;;;;7.28;98.24;100573.94;5093028;28;20066;-77
2021/12/24 07:35:43;;;;;;;17.27;2.83;;;;;;;7.26;98.22;100565.34;5062837;28;20334;-77
2021/12/24 07:38:09;;;;;;;15.65;3.67;;;;;;;7.26;98.45;100572.31;5083257;28;20056;-77
2021/12/24 07:40:36;;;;;;;20.10;3.35;;;;;;;7.24;98.21;100571.47;5076026;28;20059;-77
2021/12/24 07:43:01;;;;;;;19.25;3.35;;;;;;;7.23;98.28;100565.44;5063811;28;20130;-77
2021/12/24 07:45:26;;;;;;;17.80;3.25;;;;;;;7.23;98.31;100564.59;5081997;28;20056;-77
2021/12/24 07:48:07;;;;;;;18.05;3.47;;;;;;;7.21;98.36;100562.03;5079524;28;20327;-77
2021/12/24 07:52:58;;;;;;;17.65;3.22;;;;;;;7.22;98.56;100562.88;5076628;28;20032;-78
2021/12/24 07:55:23;;;;;;;15.15;3.45;;;;;;;7.24;98.31;100561.06;5075027;28;20047;-78
2021/12/24 07:57:51;;;;;;;21.13;2.88;;;;;;;7.24;98.48;100566.28;5044767;28;20032;-78
2021/12/24 08:00:17;;;;;;;12.00;3.28;;;;;;;7.23;98.53;100556.78;5077051;28;20040;-78
2021/12/24 08:02:43;;;;;;;15.13;3.13;;;;;;;7.22;98.56;100573.28;5074210;28;20031;-80
2021/12/24 08:05:09;;;;;;;13.90;2.92;;;;;;;7.21;98.46;100577.66;5073681;28;20262;-78
2021/12/24 08:07:34;;;;;;;15.57;3.95;;;;;;;7.21;98.63;100579.41;5068296;28;20331;-78
2021/12/24 08:09:59;;;;;;;12.60;2.75;;;;;;;7.20;98.38;100578.53;5071703;28;20024;-78
2021/12/24 08:12:25;;;;;;;27.55;4.05;;;;;;;7.19;98.82;100582.06;5055275;28;20028;-78
2021/12/24 08:14:50;;;;;;;18.88;3.75;;;;;;;7.18;98.57;100577.72;5093417;28;20054;-78
2021/12/24 08:17:16;;;;;;;27.40;4.30;;;;;;;7.20;98.63;100572.47;5085865;28;20050;-78
2021/12/24 08:19:41;;;;;;;16.98;3.28;;;;;;;7.20;98.76;100582.91;5094016;28;20276;-78
2021/12/24 08:22:07;;;;;;;15.50;3.35;;;;;;;7.19;98.74;100571.63;5063389;28;20381;-78
2021/12/24 08:24:32;;;;;;;12.13;2.85;;;;;;;7.20;98.60;100575.09;5071301;28;20227;-78
2021/12/24 08:26:58;;;;;;;16.90;3.08;;;;;;;7.21;98.75;100579.41;5062928;28;20051;-78
2021/12/24 08:29:23;;;;;;;15.52;3.00;;;;;;;7.23;98.68;100577.59;5096229;28;20050;-78
2021/12/24 08:31:52;;;;;;;17.02;2.85;;;;;;;7.26;98.81;100577.53;5067981;28;20044;-78
2021/12/24 08:34:19;;;;;;;18.23;3.00;;;;;;;7.26;98.99;100574.91;5071738;28;20274;-78
2021/12/24 08:36:45;;;;;;;14.30;3.28;;;;;;;7.26;98.73;100572.31;5061865;28;20043;-78
2021/12/24 08:39:10;;;;;;;19.02;3.80;;;;;;;7.29;99.01;100578.28;5061590;28;20057;-78
2021/12/24 08:41:36;;;;;;;17.35;3.33;;;;;;;7.30;99.19;100577.34;5087882;28;20047;-78
2021/12/24 08:44:02;;;;;;;17.70;3.80;;;;;;;7.31;99.20;100575.59;5060011;28;20338;-78
2021/12/24 08:46:27;;;;;;;21.60;3.20;;;;;;;7.33;99.11;100581.63;5078431;28;20083;-79
2021/12/24 08:48:53;;;;;;;19.38;3.53;;;;;;;7.34;99.04;100575.50;5060900;28;20036;-78
2021/12/24 08:51:18;;;;;;;21.70;2.97;;;;;;;7.34;99.21;100572.06;5091888;28;20563;-78
2021/12/24 08:53:43;;;;;;;21.38;2.97;;;;;;;7.34;99.11;100574.66;5094213;28;20028;-78
2021/12/24 08:56:09;;;;;;;17.25;2.95;;;;;;;7.35;99.30;100577.22;5090294;28;20230;-78
2021/12/24 08:58:37;;;;;;;27.30;3.83;;;;;;;7.36;99.21;100573.72;5066816;28;20265;-79
2021/12/24 09:01:03;;;;;;;19.25;3.40;;;;;;;7.38;99.14;100581.47;5061051;28;20047;-78
2021/12/24 09:03:28;;;;;;;21.80;3.88;;;;;;;7.40;99.17;100588.34;5075121;28;20061;-78
2021/12/24 09:05:54;;;;;;;17.17;3.63;;;;;;;7.40;99.30;100583.13;5075313;28;20067;-78
2021/12/24 09:08:19;;;;;;;15.15;3.13;;;;;;;7.41;99.24;100581.38;5073243;28;20032;-78
2021/12/24 09:10:45;;;;;;;21.75;4.10;;;;;;;7.40;99.08;100580.53;5071575;28;20583;-78
2021/12/24 09:13:10;;;;;;;10.75;3.00;;;;;;;7.41;99.12;100574.41;5073067;28;20056;-78
2021/12/24 09:15:37;;;;;;;16.10;3.25;;;;;;;7.42;99.22;100586.56;5049471;28;20049;-78
2021/12/24 09:18:03;;;;;;;13.77;3.05;;;;;;;7.42;98.94;100589.16;5073699;28;20091;-78
2021/12/24 09:20:34;;;;;;;15.20;4.03;;;;;;;7.42;99.25;100577.88;5097221;28;20061;-78
2021/12/24 09:23:01;;;;;;;23.45;4.25;;;;;;;7.42;99.00;100589.16;5073572;28;20096;-78
2021/12/24 09:25:27;;;;;;;11.55;3.40;;;;;;;7.43;98.95;100572.63;5072666;28;20350;-78
2021/12/24 09:27:52;;;;;;;14.20;3.95;;;;;;;7.43;99.04;100561.34;5098695;28;20092;-78
2021/12/24 09:30:18;;;;;;;10.43;3.20;;;;;;;7.43;99.06;100571.78;5076262;28;20050;-78
2021/12/24 09:32:43;;;;;;;11.05;3.67;;;;;;;7.43;98.97;100564.78;5044645;28;20081;-78
2021/12/24 09:35:10;;;;;;;21.83;4.28;;;;;;;7.44;99.14;100565.63;5046735;28;20049;-78
2021/12/24 09:37:35;;;;;;;14.88;3.55;;;;;;;7.44;98.98;100563.91;5077958;28;20277;-78
2021/12/24 09:40:01;;;;;;;15.32;3.30;;;;;;;7.44;99.10;100573.47;5061012;28;20040;-78
2021/12/24 09:42:27;;;;;;;18.58;4.25;;;;;;;7.44;99.03;100570.84;5058694;28;20235;-78
2021/12/24 09:44:52;;;;;;;19.48;4.38;;;;;;;7.46;98.98;100572.53;5084532;28;20047;-78
2021/12/24 09:47:18;;;;;;;25.45;5.75;;;;;;;7.45;98.97;100570.81;5072708;28;20040;-78
2021/12/24 09:49:44;;;;;;;15.18;3.53;;;;;;;7.46;98.71;100572.53;5091162;28;20032;-78
2021/12/24 09:52:09;;;;;;;18.83;4.43;;;;;;;7.46;98.79;100569.06;5059468;28;20039;-78
2021/12/24 09:54:35;;;;;;;26.27;4.53;;;;;;;7.46;98.71;100569.91;5050584;28;20039;-79
2021/12/24 09:57:01;;;;;;;16.63;4.35;;;;;;;7.47;98.84;100565.56;5059272;28;20231;-79
2021/12/24 09:59:27;;;;;;;17.20;3.67;;;;;;;7.47;98.84;100566.41;5063561;28;20064;-80
2021/12/24 10:01:57;;;;;;;19.83;3.85;;;;;;;7.49;98.81;100572.44;5049273;28;20132;-79
2021/12/24 10:04:28;;;;;;;18.30;4.45;;;;;;;7.52;98.54;100568.88;5053526;28;20199;-79
2021/12/24 10:07:05;;;;;;;20.00;4.60;;;;;;;7.54;98.63;100579.25;5038205;28;20245;-80
2021/12/24 10:09:42;;;;;;;17.00;4.03;;;;;;;7.54;98.57;100585.31;5057190;28;20051;-80
2021/12/24 10:12:10;;;;;;;21.88;4.65;;;;;;;7.55;98.59;100578.31;5061272;28;20093;-80
2021/12/24 10:14:52;;;;;;;18.90;4.13;;;;;;;7.57;98.36;100582.59;5062893;28;20057;-80
2021/12/24 10:17:18;;;;;;;21.05;4.30;;;;;;;7.57;98.48;100581.75;5071709;28;20243;-80
2021/12/24 10:19:45;;;;;;;18.45;4.03;;;;;;;7.57;98.20;100579.16;5059674;28;20032;-80
2021/12/24 10:22:11;;;;;;;19.20;4.47;;;;;;;7.57;98.23;100572.19;5065441;28;20403;-80
2021/12/24 10:24:37;;;;;;;18.75;4.15;;;;;;;7.59;98.11;100570.38;5070604;28;20028;-80
2021/12/24 10:27:02;;;;;;;16.77;5.22;;;;;;;7.59;98.11;100567.78;5047036;28;20036;-80
2021/12/24 10:29:34;;;;;;;15.77;4.35;;;;;;;7.61;98.30;100573.78;5072692;28;20069;-80
2021/12/24 10:32:20;;;;;;;17.83;3.80;;;;;;;7.63;97.91;100576.34;5065229;28;20046;-80
2021/12/24 10:34:45;;;;;;;20.95;4.43;;;;;;;7.63;98.06;100571.97;5071426;28;20040;-80
2021/12/24 10:37:25;;;;;;;21.00;4.50;;;;;;;7.64;97.87;100573.69;5072374;28;20340;-80
2021/12/24 10:39:52;;;;;;;12.95;3.55;;;;;;;7.67;97.66;100564.91;5051153;28;20067;-80
2021/12/24 10:42:29;;;;;;;14.60;3.90;;;;;;;7.69;97.63;100565.69;5071436;28;20032;-80
2021/12/24 10:44:55;;;;;;;25.98;4.85;;;;;;;7.68;97.87;100570.06;5049351;28;20047;-80
2021/12/24 10:47:28;;;;;;;19.00;4.25;;;;;;;7.69;97.67;100557.88;5073965;28;20312;-80
2021/12/24 10:50:09;;;;;;;21.23;4.57;;;;;;;7.71;97.85;100568.25;5061300;28;20036;-80
2021/12/24 10:55:25;;;;;;;15.13;3.72;;;;;;;7.73;97.51;100556.91;5082524;28;20091;-80
2021/12/24 10:57:52;;;;;;;18.52;4.68;;;;;;;7.73;97.63;100563.84;5070869;28;20028;-80
2021/12/24 11:00:23;;;;;;;13.35;4.75;;;;;;;7.75;97.55;100559.44;5069899;28;20036;-80
2021/12/24 11:03:03;;;;;;;16.13;4.07;;;;;;;7.76;97.75;100568.97;5055033;28;20032;-80
2021/12/24 11:05:38;;;;;;;14.23;4.05;;;;;;;7.75;97.60;100555.09;5063670;28;20238;-80
2021/12/24 11:08:09;;;;;;;25.05;4.55;;;;;;;7.77;97.58;100563.72;5081324;28;20086;-80
2021/12/24 11:10:37;;;;;;;23.13;4.63;;;;;;;7.78;97.70;100561.94;5063786;28;20056;-80
2021/12/24 11:13:16;;;;;;;22.23;4.65;;;;;;;7.77;97.38;100563.72;5059380;28;20340;-80
2021/12/24 11:15:51;;;;;;;15.15;4.38;;;;;;;7.77;97.40;100573.28;5055317;28;20108;-80
2021/12/24 11:18:24;;;;;;;23.67;5.30;;;;;;;7.77;97.48;100568.06;5065709;28;20037;-80
2021/12/24 11:20:57;;;;;;;16.60;4.63;;;;;;;7.76;97.59;100562.00;5060063;28;20064;-80
2021/12/24 11:23:24;;;;;;;16.33;4.60;;;;;;;7.76;97.64;100566.34;5055814;28;20044;-80
2021/12/24 11:25:52;;;;;;;22.38;4.97;;;;;;;7.75;97.52;100562.91;5053182;28;20405;-80
2021/12/24 11:28:18;;;;;;;22.13;4.47;;;;;;;7.74;97.82;100560.34;5049238;28;20122;-80
2021/12/24 11:30:46;;;;;;;17.70;4.40;;;;;;;7.74;97.61;100561.19;5052933;28;20354;-80
2021/12/24 11:33:13;;;;;;;22.10;3.63;;;;;;;7.75;97.44;100559.44;5063412;28;20259;-80
2021/12/24 11:35:39;;;;;;;17.42;3.83;;;;;;;7.75;97.48;100562.03;5039692;28;20071;-81
2021/12/24 11:38:04;;;;;;;25.58;4.30;;;;;;;7.77;97.46;100558.50;5055149;28;20032;-81
2021/12/24 11:40:30;;;;;;;17.88;3.75;;;;;;;7.77;97.47;100560.25;5048451;28;20020;-81
2021/12/24 11:43:00;;;;;;;18.92;4.55;;;;;;;7.78;97.54;100557.56;5055809;28;20056;-81
2021/12/24 11:45:27;;;;;;;14.60;3.95;;;;;;;7.79;97.52;100559.28;5050964;28;20044;-80
2021/12/24 11:47:53;;;;;;;14.88;3.60;;;;;;;7.77;97.58;100553.28;5040219;28;20041;-80
2021/12/24 11:50:18;;;;;;;20.45;4.10;;;;;;;7.78;97.50;100557.56;5051885;28;20056;-80
2021/12/24 11:52:48;;;;;;;18.27;3.47;;;;;;;7.78;97.31;100552.34;5065329;28;20041;-77
2021/12/24 11:55:14;;;;;;;18.02;3.50;;;;;;;7.78;97.48;100547.16;5065090;28;20100;-77
2021/12/24 11:57:56;;;;;;;18.30;3.45;;;;;;;7.79;97.60;100548.88;5044502;28;20064;-77
2021/12/24 12:00:30;;;;;;;20.95;4.63;;;;;;;7.79;97.76;100548.88;5050031;28;20047;-77
2021/12/24 12:02:55;;;;;;;18.13;3.90;;;;;;;7.79;97.66;100551.47;5054731;28;20347;-77
2021/12/24 12:05:28;;;;;;;20.88;4.70;;;;;;;7.82;97.81;100555.72;5070205;28;20061;-77
2021/12/24 12:08:25;;;;;;;14.02;3.72;;;;;;;7.82;97.61;100559.19;5086595;28;20040;-77
2021/12/24 12:10:59;;;;;;;15.85;3.15;;;;;;;7.84;97.54;100556.50;5075701;28;20028;-77
2021/12/24 12:13:44;;;;;;;15.68;3.33;;;;;;;7.85;97.51;100550.41;5050053;28;20036;-77
2021/12/24 12:16:21;;;;;;;18.40;3.60;;;;;;;7.86;97.76;100550.34;5060402;28;20052;-77
2021/12/24 12:18:51;;;;;;;13.40;3.28;;;;;;;7.87;97.80;100553.81;5076915;28;20044;-77
2021/12/24 12:21:20;;;;;;;16.08;3.80;;;;;;;7.86;97.57;100545.16;5079075;28;20270;-78
2021/12/24 12:26:39;;;;;;;13.10;3.17;;;;;;;7.90;97.78;100543.28;5080017;28;20051;-78
2021/12/24 12:29:23;;;;;;;16.63;3.85;;;;;;;7.92;97.76;100557.13;5050203;28;20020;-79
2021/12/24 12:31:52;;;;;;;17.58;3.45;;;;;;;7.93;97.73;100558.84;5085513;28;20062;-78
2021/12/24 12:34:37;;;;;;;16.27;3.47;;;;;;;7.94;97.33;100557.06;5046559;28;20024;-78
2021/12/24 12:37:21;;;;;;;24.42;4.03;;;;;;;7.95;97.63;100543.97;5061553;28;20032;-78
2021/12/24 12:39:58;;;;;;;20.23;3.45;;;;;;;7.96;97.51;100545.66;5065963;28;20094;-78
2021/12/24 12:42:54;;;;;;;21.73;3.60;;;;;;;7.97;97.53;100549.16;5066033;28;20048;-78
2021/12/24 12:45:22;;;;;;;19.75;2.72;;;;;;;7.96;97.23;100544.81;5085872;28;20100;-78
2021/12/24 12:47:58;;;;;;;14.60;3.17;;;;;;;7.96;97.28;100544.81;5067400;28;20039;-78
2021/12/24 12:50:24;;;;;;;13.25;2.58;;;;;;;7.95;97.13;100546.59;5063641;28;20365;-78
2021/12/24 12:52:52;;;;;;;16.05;3.17;;;;;;;7.94;97.31;100542.25;5047533;28;20032;-78
2021/12/24 12:55:28;;;;;;;20.80;3.08;;;;;;;7.94;97.20;100550.09;5047495;28;20027;-78
2021/12/24 12:58:17;;;;;;;12.23;3.15;;;;;;;7.94;97.29;100549.25;5065401;28;20099;-78
2021/12/24 13:01:01;;;;;;;24.23;3.42;;;;;;;7.94;96.95;100546.63;5067389;28;20118;-78